sensor_id;sensor_type;location;lat;lon;timestamp;temperature;humidity
44843;DHT22;31884;52.538;13.820;2023-02-28T00:01:30;1.20;95.10
44843;DHT22;31884;52.538;13.820;2023-02-28T00:03:56;1.20;94.40
44843;DHT22;31884;52.538;13.820;2023-02-28T00:06:22;1.20;94.30
44843;DHT22;31884;52.538;13.820;2023-02-28T00:08:48;1.20;93.10
44843;DHT22;31884;52.538;13.820;2023-02-28T00:11:14;1.20;93.10
44843;DHT22;31884;52.538;13.820;2023-02-28T00:13:43;1.20;92.20
44843;DHT22;31884;52.538;13.820;2023-02-28T00:16:14;1.20;92.10
44843;DHT22;31884;52.538;13.820;2023-02-28T00:18:41;1.20;92.40
44843;DHT22;31884;52.538;13.820;2023-02-28T00:21:07;1.20;92.10
44843;DHT22;31884;52.538;13.820;2023-02-28T00:23:32;1.20;91.90
44843;DHT22;31884;52.538;13.820;2023-02-28T00:25:58;1.20;92.50
44843;DHT22;31884;52.538;13.820;2023-02-28T00:28:24;1.20;92.50
44843;DHT22;31884;52.538;13.820;2023-02-28T00:30:49;1.20;93.30
44843;DHT22;31884;52.538;13.820;2023-02-28T00:33:15;1.20;92.30
44843;DHT22;31884;52.538;13.820;2023-02-28T00:35:41;1.10;92.80
44843;DHT22;31884;52.538;13.820;2023-02-28T00:38:07;1.20;92.90
44843;DHT22;31884;52.538;13.820;2023-02-28T00:40:32;1.10;92.70
44843;DHT22;31884;52.538;13.820;2023-02-28T00:42:58;1.10;94.50
44843;DHT22;31884;52.538;13.820;2023-02-28T00:45:23;1.10;95.40
44843;DHT22;31884;52.538;13.820;2023-02-28T00:47:49;1.10;94.80
44843;DHT22;31884;52.538;13.820;2023-02-28T00:50:17;1.10;93.80
44843;DHT22;31884;52.538;13.820;2023-02-28T00:52:43;1.00;94.80
44843;DHT22;31884;52.538;13.820;2023-02-28T00:55:09;1.00;96.00
44843;DHT22;31884;52.538;13.820;2023-02-28T00:57:34;1.00;94.50
44843;DHT22;31884;52.538;13.820;2023-02-28T01:00:00;0.90;94.60
44843;DHT22;31884;52.538;13.820;2023-02-28T01:02:25;0.90;96.20
44843;DHT22;31884;52.538;13.820;2023-02-28T01:04:51;0.80;95.30
44843;DHT22;31884;52.538;13.820;2023-02-28T01:07:16;0.80;94.30
44843;DHT22;31884;52.538;13.820;2023-02-28T01:09:42;0.70;95.20
44843;DHT22;31884;52.538;13.820;2023-02-28T01:12:08;0.70;94.70
44843;DHT22;31884;52.538;13.820;2023-02-28T01:14:34;0.60;95.90
44843;DHT22;31884;52.538;13.820;2023-02-28T01:17:00;0.60;95.50
44843;DHT22;31884;52.538;13.820;2023-02-28T01:19:26;0.50;95.80
44843;DHT22;31884;52.538;13.820;2023-02-28T01:21:52;0.50;98.10
44843;DHT22;31884;52.538;13.820;2023-02-28T01:24:17;0.40;97.50
44843;DHT22;31884;52.538;13.820;2023-02-28T01:26:43;0.30;96.90
44843;DHT22;31884;52.538;13.820;2023-02-28T01:29:08;0.20;98.60
44843;DHT22;31884;52.538;13.820;2023-02-28T01:31:34;0.10;99.90
44843;DHT22;31884;52.538;13.820;2023-02-28T01:34:00;0.10;99.90
44843;DHT22;31884;52.538;13.820;2023-02-28T01:36:26;0.00;99.90
44843;DHT22;31884;52.538;13.820;2023-02-28T01:38:52;-0.10;99.90
44843;DHT22;31884;52.538;13.820;2023-02-28T01:41:30;-0.20;99.80
44843;DHT22;31884;52.538;13.820;2023-02-28T01:44:06;-0.30;98.00
44843;DHT22;31884;52.538;13.820;2023-02-28T01:46:34;-0.40;98.50
44843;DHT22;31884;52.538;13.820;2023-02-28T01:49:11;-0.50;99.90
44843;DHT22;31884;52.538;13.820;2023-02-28T01:51:42;-0.50;98.80
44843;DHT22;31884;52.538;13.820;2023-02-28T01:54:18;-0.60;99.90
44843;DHT22;31884;52.538;13.820;2023-02-28T01:56:55;-0.70;99.90
44843;DHT22;31884;52.538;13.820;2023-02-28T01:59:28;-0.80;99.90
44843;DHT22;31884;52.538;13.820;2023-02-28T02:01:55;-0.90;99.80
44843;DHT22;31884;52.538;13.820;2023-02-28T02:04:23;-1.00;99.20
44843;DHT22;31884;52.538;13.820;2023-02-28T02:06:52;-1.10;99.90
44843;DHT22;31884;52.538;13.820;2023-02-28T02:09:17;-1.20;99.90
44843;DHT22;31884;52.538;13.820;2023-02-28T02:11:45;-1.30;99.90
44843;DHT22;31884;52.538;13.820;2023-02-28T02:17:15;-1.40;99.90
44843;DHT22;31884;52.538;13.820;2023-02-28T02:23:14;-1.50;99.90
44843;DHT22;31884;52.538;13.820;2023-02-28T02:25:58;-1.60;99.90
44843;DHT22;31884;52.538;13.820;2023-02-28T02:37:13;-1.80;99.90
44843;DHT22;31884;52.538;13.820;2023-02-28T02:40:13;-1.90;99.90
44843;DHT22;31884;52.538;13.820;2023-02-28T02:42:51;-1.90;99.90
44843;DHT22;31884;52.538;13.820;2023-02-28T02:45:24;-2.00;99.90
44843;DHT22;31884;52.538;13.820;2023-02-28T02:47:51;-2.10;99.90
44843;DHT22;31884;52.538;13.820;2023-02-28T02:50:25;-2.10;99.90
44843;DHT22;31884;52.538;13.820;2023-02-28T02:52:55;-2.20;99.90
44843;DHT22;31884;52.538;13.820;2023-02-28T02:55:22;-2.20;99.90
44843;DHT22;31884;52.538;13.820;2023-02-28T02:57:54;-2.20;99.90
44843;DHT22;31884;52.538;13.820;2023-02-28T03:00:25;-2.30;99.90
44843;DHT22;31884;52.538;13.820;2023-02-28T03:02:54;-2.30;99.90
44843;DHT22;31884;52.538;13.820;2023-02-28T03:05:25;-2.30;99.90
44843;DHT22;31884;52.538;13.820;2023-02-28T03:07:51;-2.30;99.90
44843;DHT22;31884;52.538;13.820;2023-02-28T03:15:58;-2.40;99.90
44843;DHT22;31884;52.538;13.820;2023-02-28T03:18:45;-2.50;99.90
44843;DHT22;31884;52.538;13.820;2023-02-28T03:21:40;-2.50;99.90
44843;DHT22;31884;52.538;13.820;2023-02-28T03:24:25;-2.60;99.90
44843;DHT22;31884;52.538;13.820;2023-02-28T03:26:57;-2.60;99.90
44843;DHT22;31884;52.538;13.820;2023-02-28T03:32:35;-2.70;99.90
44843;DHT22;31884;52.538;13.820;2023-02-28T03:35:17;-2.70;99.90
44843;DHT22;31884;52.538;13.820;2023-02-28T03:37:51;-2.80;99.90
44843;DHT22;31884;52.538;13.820;2023-02-28T03:40:20;-2.80;99.90
44843;DHT22;31884;52.538;13.820;2023-02-28T03:42:51;-2.80;99.90
44843;DHT22;31884;52.538;13.820;2023-02-28T03:45:25;-2.90;99.90
44843;DHT22;31884;52.538;13.820;2023-02-28T03:47:57;-2.90;99.90
44843;DHT22;31884;52.538;13.820;2023-02-28T03:50:44;-2.90;99.90
44843;DHT22;31884;52.538;13.820;2023-02-28T03:55:45;-3.00;99.90
44843;DHT22;31884;52.538;13.820;2023-02-28T04:01:08;-3.00;99.90
44843;DHT22;31884;52.538;13.820;2023-02-28T04:03:35;-3.10;99.90
44843;DHT22;31884;52.538;13.820;2023-02-28T04:06:02;-3.10;99.90
44843;DHT22;31884;52.538;13.820;2023-02-28T04:08:27;-3.10;99.90
44843;DHT22;31884;52.538;13.820;2023-02-28T04:11:06;-3.10;99.90
44843;DHT22;31884;52.538;13.820;2023-02-28T04:13:33;-3.20;99.90
44843;DHT22;31884;52.538;13.820;2023-02-28T04:15:59;-3.20;99.90
44843;DHT22;31884;52.538;13.820;2023-02-28T04:18:24;-3.20;99.90
44843;DHT22;31884;52.538;13.820;2023-02-28T04:20:50;-3.20;99.90
44843;DHT22;31884;52.538;13.820;2023-02-28T04:23:15;-3.20;99.90
44843;DHT22;31884;52.538;13.820;2023-02-28T04:25:41;-3.20;99.90
44843;DHT22;31884;52.538;13.820;2023-02-28T04:28:06;-3.30;99.90
44843;DHT22;31884;52.538;13.820;2023-02-28T04:30:32;-3.30;99.90
44843;DHT22;31884;52.538;13.820;2023-02-28T04:32:58;-3.30;99.90
44843;DHT22;31884;52.538;13.820;2023-02-28T04:35:23;-3.40;99.90
44843;DHT22;31884;52.538;13.820;2023-02-28T04:37:49;-3.40;99.90
44843;DHT22;31884;52.538;13.820;2023-02-28T04:40:15;-3.40;99.90
44843;DHT22;31884;52.538;13.820;2023-02-28T04:42:40;-3.40;99.90
44843;DHT22;31884;52.538;13.820;2023-02-28T04:45:06;-3.50;99.90
44843;DHT22;31884;52.538;13.820;2023-02-28T04:47:32;-3.50;99.90
44843;DHT22;31884;52.538;13.820;2023-02-28T04:49:57;-3.50;99.90
44843;DHT22;31884;52.538;13.820;2023-02-28T04:52:23;-3.50;99.90
44843;DHT22;31884;52.538;13.820;2023-02-28T04:54:48;-3.60;99.90
44843;DHT22;31884;52.538;13.820;2023-02-28T04:57:14;-3.60;99.90
44843;DHT22;31884;52.538;13.820;2023-02-28T04:59:40;-3.60;99.90
44843;DHT22;31884;52.538;13.820;2023-02-28T05:02:05;-3.60;99.90
44843;DHT22;31884;52.538;13.820;2023-02-28T05:04:35;-3.60;99.90
44843;DHT22;31884;52.538;13.820;2023-02-28T05:07:01;-3.60;99.90
44843;DHT22;31884;52.538;13.820;2023-02-28T05:09:28;-3.70;99.90
44843;DHT22;31884;52.538;13.820;2023-02-28T05:11:54;-3.70;99.90
44843;DHT22;31884;52.538;13.820;2023-02-28T05:14:19;-3.70;99.90
44843;DHT22;31884;52.538;13.820;2023-02-28T05:16:45;-3.70;99.90
44843;DHT22;31884;52.538;13.820;2023-02-28T05:19:10;-3.80;99.90
44843;DHT22;31884;52.538;13.820;2023-02-28T05:21:38;-3.80;99.90
44843;DHT22;31884;52.538;13.820;2023-02-28T05:24:07;-3.80;99.90
44843;DHT22;31884;52.538;13.820;2023-02-28T05:26:38;-3.80;99.90
44843;DHT22;31884;52.538;13.820;2023-02-28T05:29:04;-3.90;99.90
44843;DHT22;31884;52.538;13.820;2023-02-28T05:31:30;-3.90;99.90
44843;DHT22;31884;52.538;13.820;2023-02-28T05:33:56;-3.90;99.90
44843;DHT22;31884;52.538;13.820;2023-02-28T05:36:22;-3.90;99.90
44843;DHT22;31884;52.538;13.820;2023-02-28T05:38:48;-3.90;99.90
44843;DHT22;31884;52.538;13.820;2023-02-28T05:41:14;-3.90;99.90
44843;DHT22;31884;52.538;13.820;2023-02-28T05:43:40;-3.90;99.90
44843;DHT22;31884;52.538;13.820;2023-02-28T05:46:07;-3.90;99.90
44843;DHT22;31884;52.538;13.820;2023-02-28T05:48:36;-4.00;99.90
44843;DHT22;31884;52.538;13.820;2023-02-28T05:51:03;-4.00;99.90
44843;DHT22;31884;52.538;13.820;2023-02-28T05:53:29;-4.00;99.90
44843;DHT22;31884;52.538;13.820;2023-02-28T05:55:55;-4.00;99.90
44843;DHT22;31884;52.538;13.820;2023-02-28T05:58:21;-4.00;99.90
44843;DHT22;31884;52.538;13.820;2023-02-28T06:00:46;-4.00;99.90
44843;DHT22;31884;52.538;13.820;2023-02-28T06:03:12;-4.00;99.90
44843;DHT22;31884;52.538;13.820;2023-02-28T06:05:37;-4.00;99.90
44843;DHT22;31884;52.538;13.820;2023-02-28T06:08:04;-4.00;99.90
44843;DHT22;31884;52.538;13.820;2023-02-28T06:10:32;-3.90;99.90
44843;DHT22;31884;52.538;13.820;2023-02-28T06:13:00;-3.90;99.90
44843;DHT22;31884;52.538;13.820;2023-02-28T06:15:27;-3.90;99.90
44843;DHT22;31884;52.538;13.820;2023-02-28T06:17:53;-3.80;99.90
44843;DHT22;31884;52.538;13.820;2023-02-28T06:20:19;-3.80;99.90
44843;DHT22;31884;52.538;13.820;2023-02-28T06:22:44;-3.80;99.90
44843;DHT22;31884;52.538;13.820;2023-02-28T06:25:10;-3.80;99.90
44843;DHT22;31884;52.538;13.820;2023-02-28T06:27:36;-3.80;99.90
44843;DHT22;31884;52.538;13.820;2023-02-28T06:30:01;-3.70;99.90
44843;DHT22;31884;52.538;13.820;2023-02-28T06:32:27;-3.70;99.90
44843;DHT22;31884;52.538;13.820;2023-02-28T06:34:52;-3.60;99.90
44843;DHT22;31884;52.538;13.820;2023-02-28T06:37:18;-3.40;99.90
44843;DHT22;31884;52.538;13.820;2023-02-28T06:39:44;-3.00;99.90
44843;DHT22;31884;52.538;13.820;2023-02-28T06:42:10;-2.50;99.90
44843;DHT22;31884;52.538;13.820;2023-02-28T06:44:35;-1.80;99.90
44843;DHT22;31884;52.538;13.820;2023-02-28T06:47:03;-1.00;99.90
44843;DHT22;31884;52.538;13.820;2023-02-28T06:49:30;-0.10;99.90
44843;DHT22;31884;52.538;13.820;2023-02-28T06:51:55;0.60;99.90
44843;DHT22;31884;52.538;13.820;2023-02-28T06:54:21;1.30;99.90
44843;DHT22;31884;52.538;13.820;2023-02-28T06:56:47;1.90;94.80
44843;DHT22;31884;52.538;13.820;2023-02-28T06:59:13;2.50;90.70
44843;DHT22;31884;52.538;13.820;2023-02-28T07:01:39;2.90;87.20
44843;DHT22;31884;52.538;13.820;2023-02-28T07:04:05;3.30;84.00
44843;DHT22;31884;52.538;13.820;2023-02-28T07:06:31;3.60;82.30
44843;DHT22;31884;52.538;13.820;2023-02-28T07:08:56;3.80;81.20
44843;DHT22;31884;52.538;13.820;2023-02-28T07:11:26;3.90;79.00
44843;DHT22;31884;52.538;13.820;2023-02-28T07:13:53;4.20;78.30
44843;DHT22;31884;52.538;13.820;2023-02-28T07:16:19;4.40;75.70
44843;DHT22;31884;52.538;13.820;2023-02-28T07:18:45;4.60;73.30
44843;DHT22;31884;52.538;13.820;2023-02-28T07:21:11;4.70;64.90
44843;DHT22;31884;52.538;13.820;2023-02-28T07:23:37;4.90;74.60
44843;DHT22;31884;52.538;13.820;2023-02-28T07:26:07;5.10;77.50
44843;DHT22;31884;52.538;13.820;2023-02-28T07:28:36;5.30;76.50
44843;DHT22;31884;52.538;13.820;2023-02-28T07:31:05;5.40;76.10
44843;DHT22;31884;52.538;13.820;2023-02-28T07:33:31;5.40;79.20
44843;DHT22;31884;52.538;13.820;2023-02-28T07:36:04;5.30;78.60
44843;DHT22;31884;52.538;13.820;2023-02-28T07:38:31;5.30;69.30
44843;DHT22;31884;52.538;13.820;2023-02-28T07:40:58;5.30;76.20
44843;DHT22;31884;52.538;13.820;2023-02-28T07:43:23;5.40;73.70
44843;DHT22;31884;52.538;13.820;2023-02-28T07:45:49;5.50;73.60
44843;DHT22;31884;52.538;13.820;2023-02-28T07:48:14;5.70;72.10
44843;DHT22;31884;52.538;13.820;2023-02-28T07:50:40;5.80;77.00
44843;DHT22;31884;52.538;13.820;2023-02-28T07:53:05;5.90;58.90
44843;DHT22;31884;52.538;13.820;2023-02-28T07:55:31;5.70;56.00
44843;DHT22;31884;52.538;13.820;2023-02-28T07:57:57;5.80;60.10
44843;DHT22;31884;52.538;13.820;2023-02-28T08:00:23;5.80;64.40
44843;DHT22;31884;52.538;13.820;2023-02-28T08:02:49;6.00;70.70
44843;DHT22;31884;52.538;13.820;2023-02-28T08:05:14;6.10;56.30
44843;DHT22;31884;52.538;13.820;2023-02-28T08:07:40;6.10;62.30
44843;DHT22;31884;52.538;13.820;2023-02-28T08:10:06;6.20;56.40
44843;DHT22;31884;52.538;13.820;2023-02-28T08:12:32;6.20;60.50
44843;DHT22;31884;52.538;13.820;2023-02-28T08:14:57;6.40;68.10
44843;DHT22;31884;52.538;13.820;2023-02-28T08:17:23;6.50;64.80
44843;DHT22;31884;52.538;13.820;2023-02-28T08:19:49;6.60;63.10
44843;DHT22;31884;52.538;13.820;2023-02-28T08:22:14;6.60;51.30
44843;DHT22;31884;52.538;13.820;2023-02-28T08:24:41;6.40;40.00
44843;DHT22;31884;52.538;13.820;2023-02-28T08:27:08;6.20;37.70
44843;DHT22;31884;52.538;13.820;2023-02-28T08:29:33;6.20;48.90
44843;DHT22;31884;52.538;13.820;2023-02-28T08:31:59;6.30;45.60
44843;DHT22;31884;52.538;13.820;2023-02-28T08:34:24;6.20;41.70
44843;DHT22;31884;52.538;13.820;2023-02-28T08:36:50;6.10;36.20
44843;DHT22;31884;52.538;13.820;2023-02-28T08:39:15;6.20;48.60
44843;DHT22;31884;52.538;13.820;2023-02-28T08:41:42;6.30;36.70
44843;DHT22;31884;52.538;13.820;2023-02-28T08:44:09;6.20;39.00
44843;DHT22;31884;52.538;13.820;2023-02-28T08:46:34;6.40;46.80
44843;DHT22;31884;52.538;13.820;2023-02-28T08:49:00;6.50;46.40
44843;DHT22;31884;52.538;13.820;2023-02-28T08:51:27;6.60;40.90
44843;DHT22;31884;52.538;13.820;2023-02-28T08:53:55;6.80;45.90
44843;DHT22;31884;52.538;13.820;2023-02-28T08:56:21;7.20;44.10
44843;DHT22;31884;52.538;13.820;2023-02-28T08:58:49;7.20;31.80
44843;DHT22;31884;52.538;13.820;2023-02-28T09:01:28;7.00;24.50
44843;DHT22;31884;52.538;13.820;2023-02-28T09:03:55;7.00;26.80
44843;DHT22;31884;52.538;13.820;2023-02-28T09:06:23;7.30;33.30
44843;DHT22;31884;52.538;13.820;2023-02-28T09:08:50;7.70;30.00
44843;DHT22;31884;52.538;13.820;2023-02-28T09:11:16;8.00;28.80
44843;DHT22;31884;52.538;13.820;2023-02-28T09:13:42;8.20;20.10
44843;DHT22;31884;52.538;13.820;2023-02-28T09:16:11;8.20;21.10
44843;DHT22;31884;52.538;13.820;2023-02-28T09:18:38;8.40;19.70
44843;DHT22;31884;52.538;13.820;2023-02-28T09:21:08;8.20;10.60
44843;DHT22;31884;52.538;13.820;2023-02-28T09:23:34;7.70;9.30
44843;DHT22;31884;52.538;13.820;2023-02-28T09:25:59;7.70;14.10
44843;DHT22;31884;52.538;13.820;2023-02-28T09:28:25;7.70;14.50
44843;DHT22;31884;52.538;13.820;2023-02-28T09:30:53;7.60;13.80
44843;DHT22;31884;52.538;13.820;2023-02-28T09:33:19;7.70;12.30
44843;DHT22;31884;52.538;13.820;2023-02-28T09:35:47;7.80;12.00
44843;DHT22;31884;52.538;13.820;2023-02-28T09:38:13;7.80;11.60
44843;DHT22;31884;52.538;13.820;2023-02-28T09:40:47;7.60;11.30
44843;DHT22;31884;52.538;13.820;2023-02-28T09:43:15;7.50;9.40
44843;DHT22;31884;52.538;13.820;2023-02-28T09:45:47;7.40;9.60
44843;DHT22;31884;52.538;13.820;2023-02-28T09:48:21;7.40;12.00
44843;DHT22;31884;52.538;13.820;2023-02-28T09:50:52;7.50;10.20
44843;DHT22;31884;52.538;13.820;2023-02-28T09:53:29;7.20;11.90
44843;DHT22;31884;52.538;13.820;2023-02-28T09:58:36;7.00;13.00
44843;DHT22;31884;52.538;13.820;2023-02-28T10:01:21;7.10;10.90
44843;DHT22;31884;52.538;13.820;2023-02-28T10:04:14;7.20;10.90
44843;DHT22;31884;52.538;13.820;2023-02-28T10:07:02;7.30;11.20
44843;DHT22;31884;52.538;13.820;2023-02-28T10:09:32;7.20;11.50
44843;DHT22;31884;52.538;13.820;2023-02-28T10:12:03;6.90;11.40
44843;DHT22;31884;52.538;13.820;2023-02-28T10:14:31;6.80;9.90
44843;DHT22;31884;52.538;13.820;2023-02-28T10:17:04;6.70;10.70
44843;DHT22;31884;52.538;13.820;2023-02-28T10:20:02;6.70;11.70
44843;DHT22;31884;52.538;13.820;2023-02-28T10:23:11;6.70;10.40
44843;DHT22;31884;52.538;13.820;2023-02-28T10:25:38;6.60;10.90
44843;DHT22;31884;52.538;13.820;2023-02-28T10:30:32;6.10;10.60
44843;DHT22;31884;52.538;13.820;2023-02-28T10:32:58;5.90;11.90
44843;DHT22;31884;52.538;13.820;2023-02-28T10:35:25;5.90;11.90
44843;DHT22;31884;52.538;13.820;2023-02-28T10:37:54;5.60;12.00
44843;DHT22;31884;52.538;13.820;2023-02-28T10:43:00;5.50;12.40
44843;DHT22;31884;52.538;13.820;2023-02-28T10:45:30;5.40;12.90
44843;DHT22;31884;52.538;13.820;2023-02-28T10:48:22;5.50;12.60
44843;DHT22;31884;52.538;13.820;2023-02-28T10:50:51;5.40;13.10
44843;DHT22;31884;52.538;13.820;2023-02-28T10:56:02;5.30;14.00
44843;DHT22;31884;52.538;13.820;2023-02-28T10:58:31;5.20;14.10
44843;DHT22;31884;52.538;13.820;2023-02-28T11:00:59;5.20;14.10
44843;DHT22;31884;52.538;13.820;2023-02-28T11:03:33;5.00;13.50
44843;DHT22;31884;52.538;13.820;2023-02-28T11:06:05;5.00;14.20
44843;DHT22;31884;52.538;13.820;2023-02-28T11:08:31;5.00;13.90
44843;DHT22;31884;52.538;13.820;2023-02-28T11:11:00;4.90;14.10
44843;DHT22;31884;52.538;13.820;2023-02-28T11:13:33;4.90;15.20
44843;DHT22;31884;52.538;13.820;2023-02-28T11:16:04;5.00;15.30
44843;DHT22;31884;52.538;13.820;2023-02-28T11:18:39;5.00;14.60
44843;DHT22;31884;52.538;13.820;2023-02-28T11:21:06;4.90;13.80
44843;DHT22;31884;52.538;13.820;2023-02-28T11:23:34;4.80;14.60
44843;DHT22;31884;52.538;13.820;2023-02-28T11:26:02;4.90;15.40
44843;DHT22;31884;52.538;13.820;2023-02-28T11:28:37;5.00;15.20
44843;DHT22;31884;52.538;13.820;2023-02-28T11:33:50;4.80;14.80
44843;DHT22;31884;52.538;13.820;2023-02-28T11:36:22;4.70;15.40
44843;DHT22;31884;52.538;13.820;2023-02-28T11:38:54;4.70;15.60
44843;DHT22;31884;52.538;13.820;2023-02-28T11:46:54;4.70;15.60
44843;DHT22;31884;52.538;13.820;2023-02-28T11:49:35;4.70;15.90
44843;DHT22;31884;52.538;13.820;2023-02-28T11:52:30;4.80;16.50
44843;DHT22;31884;52.538;13.820;2023-02-28T12:03:43;4.80;18.00
44843;DHT22;31884;52.538;13.820;2023-02-28T12:06:15;4.80;17.20
44843;DHT22;31884;52.538;13.820;2023-02-28T12:11:47;4.60;17.30
44843;DHT22;31884;52.538;13.820;2023-02-28T12:14:30;4.70;18.70
44843;DHT22;31884;52.538;13.820;2023-02-28T12:17:12;4.70;18.70
44843;DHT22;31884;52.538;13.820;2023-02-28T12:19:53;4.60;18.10
44843;DHT22;31884;52.538;13.820;2023-02-28T12:25:40;4.60;19.00
44843;DHT22;31884;52.538;13.820;2023-02-28T12:28:14;4.70;18.80
44843;DHT22;31884;52.538;13.820;2023-02-28T12:30:52;4.80;19.40
44843;DHT22;31884;52.538;13.820;2023-02-28T12:33:22;4.70;18.20
44843;DHT22;31884;52.538;13.820;2023-02-28T12:35:54;4.70;17.70
44843;DHT22;31884;52.538;13.820;2023-02-28T12:38:43;4.70;18.10
44843;DHT22;31884;52.538;13.820;2023-02-28T12:44:15;4.70;17.80
44843;DHT22;31884;52.538;13.820;2023-02-28T12:46:44;4.70;18.00
44843;DHT22;31884;52.538;13.820;2023-02-28T12:49:23;4.70;18.10
44843;DHT22;31884;52.538;13.820;2023-02-28T12:51:51;4.80;17.70
44843;DHT22;31884;52.538;13.820;2023-02-28T12:54:32;4.90;18.40
44843;DHT22;31884;52.538;13.820;2023-02-28T13:02:18;4.80;18.20
44843;DHT22;31884;52.538;13.820;2023-02-28T13:05:12;4.80;18.60
44843;DHT22;31884;52.538;13.820;2023-02-28T13:08:10;4.90;18.20
44843;DHT22;31884;52.538;13.820;2023-02-28T13:10:47;4.80;17.40
44843;DHT22;31884;52.538;13.820;2023-02-28T13:13:22;4.70;17.90
44843;DHT22;31884;52.538;13.820;2023-02-28T13:18:30;4.80;18.10
44843;DHT22;31884;52.538;13.820;2023-02-28T13:20:56;4.80;18.30
44843;DHT22;31884;52.538;13.820;2023-02-28T13:23:58;4.80;18.00
44843;DHT22;31884;52.538;13.820;2023-02-28T13:40:06;5.00;18.50
44843;DHT22;31884;52.538;13.820;2023-02-28T13:47:32;5.00;17.20
44843;DHT22;31884;52.538;13.820;2023-02-28T13:50:22;5.00;17.60
44843;DHT22;31884;52.538;13.820;2023-02-28T13:58:54;4.90;17.50
44843;DHT22;31884;52.538;13.820;2023-02-28T14:01:32;4.90;17.10
44843;DHT22;31884;52.538;13.820;2023-02-28T14:04:25;5.00;18.00
44843;DHT22;31884;52.538;13.820;2023-02-28T14:06:56;4.90;18.20
44843;DHT22;31884;52.538;13.820;2023-02-28T14:09:30;5.00;18.00
44843;DHT22;31884;52.538;13.820;2023-02-28T14:11:58;5.00;17.90
44843;DHT22;31884;52.538;13.820;2023-02-28T14:17:16;5.00;17.90
44843;DHT22;31884;52.538;13.820;2023-02-28T14:19:45;5.00;17.80
44843;DHT22;31884;52.538;13.820;2023-02-28T14:22:42;5.00;18.00
44843;DHT22;31884;52.538;13.820;2023-02-28T14:25:52;5.00;17.70
44843;DHT22;31884;52.538;13.820;2023-02-28T14:28:45;5.00;18.30
44843;DHT22;31884;52.538;13.820;2023-02-28T14:31:17;5.00;17.60
44843;DHT22;31884;52.538;13.820;2023-02-28T14:33:47;4.90;17.90
44843;DHT22;31884;52.538;13.820;2023-02-28T14:36:35;5.00;18.30
44843;DHT22;31884;52.538;13.820;2023-02-28T14:39:10;4.90;18.00
44843;DHT22;31884;52.538;13.820;2023-02-28T14:41:39;4.90;18.90
44843;DHT22;31884;52.538;13.820;2023-02-28T14:44:23;4.90;18.70
44843;DHT22;31884;52.538;13.820;2023-02-28T14:46:52;4.90;18.60
44843;DHT22;31884;52.538;13.820;2023-02-28T14:52:47;4.80;18.90
44843;DHT22;31884;52.538;13.820;2023-02-28T14:55:12;4.80;19.30
44843;DHT22;31884;52.538;13.820;2023-02-28T14:57:41;4.80;19.30
44843;DHT22;31884;52.538;13.820;2023-02-28T15:00:17;4.80;20.10
44843;DHT22;31884;52.538;13.820;2023-02-28T15:02:45;4.80;20.10
44843;DHT22;31884;52.538;13.820;2023-02-28T15:07:47;4.80;19.80
44843;DHT22;31884;52.538;13.820;2023-02-28T15:10:18;4.70;20.00
44843;DHT22;31884;52.538;13.820;2023-02-28T15:12:52;4.70;20.20
44843;DHT22;31884;52.538;13.820;2023-02-28T15:15:19;4.70;20.00
44843;DHT22;31884;52.538;13.820;2023-02-28T15:17:50;4.60;20.90
44843;DHT22;31884;52.538;13.820;2023-02-28T15:20:18;4.60;21.20
44843;DHT22;31884;52.538;13.820;2023-02-28T15:22:45;4.60;21.10
44843;DHT22;31884;52.538;13.820;2023-02-28T15:25:14;4.60;21.10
44843;DHT22;31884;52.538;13.820;2023-02-28T15:27:45;4.60;21.30
44843;DHT22;31884;52.538;13.820;2023-02-28T15:30:18;4.50;21.70
44843;DHT22;31884;52.538;13.820;2023-02-28T15:32:45;4.50;21.90
44843;DHT22;31884;52.538;13.820;2023-02-28T15:35:29;4.50;22.10
44843;DHT22;31884;52.538;13.820;2023-02-28T15:38:13;4.50;21.80
44843;DHT22;31884;52.538;13.820;2023-02-28T15:40:45;4.40;22.20
44843;DHT22;31884;52.538;13.820;2023-02-28T15:43:24;4.40;22.10
44843;DHT22;31884;52.538;13.820;2023-02-28T15:45:59;4.40;21.80
44843;DHT22;31884;52.538;13.820;2023-02-28T15:48:31;4.40;21.90
44843;DHT22;31884;52.538;13.820;2023-02-28T15:53:44;4.30;21.90
44843;DHT22;31884;52.538;13.820;2023-02-28T15:56:25;4.30;22.50
44843;DHT22;31884;52.538;13.820;2023-02-28T15:58:55;4.20;22.90
44843;DHT22;31884;52.538;13.820;2023-02-28T16:01:26;4.20;22.60
44843;DHT22;31884;52.538;13.820;2023-02-28T16:03:54;4.20;22.60
44843;DHT22;31884;52.538;13.820;2023-02-28T16:06:40;4.10;23.00
44843;DHT22;31884;52.538;13.820;2023-02-28T16:09:14;4.10;23.40
44843;DHT22;31884;52.538;13.820;2023-02-28T16:11:51;4.00;23.50
44843;DHT22;31884;52.538;13.820;2023-02-28T16:14:21;4.00;23.10
44843;DHT22;31884;52.538;13.820;2023-02-28T16:16:50;3.90;23.80
44843;DHT22;31884;52.538;13.820;2023-02-28T16:19:17;3.90;23.30
44843;DHT22;31884;52.538;13.820;2023-02-28T16:21:43;3.80;23.50
44843;DHT22;31884;52.538;13.820;2023-02-28T16:24:08;3.80;23.90
44843;DHT22;31884;52.538;13.820;2023-02-28T16:26:34;3.70;24.00
44843;DHT22;31884;52.538;13.820;2023-02-28T16:29:03;3.60;24.20
44843;DHT22;31884;52.538;13.820;2023-02-28T16:31:28;3.60;24.60
44843;DHT22;31884;52.538;13.820;2023-02-28T16:33:54;3.50;24.90
44843;DHT22;31884;52.538;13.820;2023-02-28T16:36:22;3.40;25.30
44843;DHT22;31884;52.538;13.820;2023-02-28T16:38:51;3.30;25.30
44843;DHT22;31884;52.538;13.820;2023-02-28T16:41:22;3.20;25.60
44843;DHT22;31884;52.538;13.820;2023-02-28T16:43:52;3.10;25.70
44843;DHT22;31884;52.538;13.820;2023-02-28T16:46:19;2.90;26.30
44843;DHT22;31884;52.538;13.820;2023-02-28T16:48:45;2.90;27.30
44843;DHT22;31884;52.538;13.820;2023-02-28T16:51:12;2.70;27.60
44843;DHT22;31884;52.538;13.820;2023-02-28T16:53:39;2.60;28.00
44843;DHT22;31884;52.538;13.820;2023-02-28T16:56:04;2.50;28.10
44843;DHT22;31884;52.538;13.820;2023-02-28T16:58:32;2.40;28.50
44843;DHT22;31884;52.538;13.820;2023-02-28T17:01:01;2.30;29.60
44843;DHT22;31884;52.538;13.820;2023-02-28T17:03:28;2.20;30.30
44843;DHT22;31884;52.538;13.820;2023-02-28T17:05:54;2.10;30.50
44843;DHT22;31884;52.538;13.820;2023-02-28T17:08:19;2.00;33.00
44843;DHT22;31884;52.538;13.820;2023-02-28T17:10:45;1.90;32.10
44843;DHT22;31884;52.538;13.820;2023-02-28T17:13:11;1.80;32.70
44843;DHT22;31884;52.538;13.820;2023-02-28T17:15:37;1.70;34.00
44843;DHT22;31884;52.538;13.820;2023-02-28T17:18:03;1.60;33.50
44843;DHT22;31884;52.538;13.820;2023-02-28T17:20:29;1.50;33.90
44843;DHT22;31884;52.538;13.820;2023-02-28T17:22:55;1.40;34.50
44843;DHT22;31884;52.538;13.820;2023-02-28T17:25:22;1.30;35.40
44843;DHT22;31884;52.538;13.820;2023-02-28T17:27:48;1.20;36.80
44843;DHT22;31884;52.538;13.820;2023-02-28T17:30:25;1.10;38.30
44843;DHT22;31884;52.538;13.820;2023-02-28T17:32:55;1.00;37.70
44843;DHT22;31884;52.538;13.820;2023-02-28T17:35:21;1.00;38.10